C. Angelo — WCZ5866 — position and weather

sailwx.info

Track history (hours):
 
Tides and Currents Weather Stations Pressure Air Temp Water Temp Dewpoint Dewpoint Depression Visibility Wind Speed Wind Dir Waves Ship Positions

C. Angelo

Owner: G T 110 INC, NEW HAVEN, CT. More information available from US FCC via Universal Licensing System and Coast Guard Vessel Documentation Center.

Last reported at 2017-Mar-13 19:33 UTC. Time now 2017-Mar-30 18:41 UTC.
Position N 41°12' W 072°37'.
Warning: this ship's position is 16 days out of date.

Length 30 m; draft 4 m.

Type: Tug. MMSI: 366988420.

Date/timePositionNaut miles runAvg speedWind from/ knotsBaromVisibWave heightAir tempDewpointWater temp
2017-Mar-13 19:33N 41°12' W 072°37'1010.2
2017-Mar-13 18:33N 41°13' W 072°23'50 9.9
2017-Mar-13 13:33N 41°34' W 071°24'1 1.0
2017-Mar-13 12:25N 41°35' W 071°23'2 2.4
2017-Mar-13 11:29N 41°33' W 071°24'3 3.5
2017-Mar-13 10:33N 41°36' W 071°23'5 4.2
2017-Mar-13 09:28N 41°32' W 071°24'39 5.7
2017-Mar-13 02:33N 41°13' W 072°10'7 6.6
2017-Mar-13 01:33N 41°11' W 072°18'6 6.3
2017-Mar-13 00:33N 41°09' W 072°26'7 6.8
2017-Mar-12 23:33N 41°07' W 072°35'7 6.7
2017-Mar-12 22:32N 41°05' W 072°44'48 6.9
2017-Mar-12 15:33N 40°51' W 073°45'6 6.4
2017-Mar-12 14:33N 40°48' W 073°52'8 7.9
2017-Mar-12 13:34N 40°42' W 073°60'7 7.4
2017-Mar-12 12:33N 40°35' W 074°02'8 8.0
2017-Mar-12 11:33N 40°29' W 073°55'34 8.3
2017-Mar-12 07:27N 39°55' W 073°57'8 8.3
2017-Mar-12 06:32N 39°47' W 073°58'8 8.3
2017-Mar-12 05:33N 39°40' W 074°02'9 8.5
2017-Mar-12 04:31N 39°32' W 074°07'62 5.6
2017-Mar-11 17:27N 39°21' W 075°26'8 8.7
2017-Mar-11 16:33N 39°27' W 075°32'1 0.6
2017-Mar-11 15:33N 39°27' W 075°33'7 6.5
2017-Mar-11 14:32N 39°22' W 075°28'3 3.4
2017-Mar-11 13:33N 39°25' W 075°30'5 4.8
2017-Mar-11 12:33N 39°29' W 075°34'1 1.2
2017-Mar-11 11:33N 39°28' W 075°33'4 3.6
2017-Mar-11 10:33N 39°25' W 075°30'3 2.9
2017-Mar-11 09:33N 39°23' W 075°28'3 2.9
2017-Mar-11 08:33N 39°25' W 075°30'1 1.1
2017-Mar-11 07:33N 39°26' W 075°31'1 1.3
2017-Mar-11 06:33N 39°25' W 075°30'2 1.7
2017-Mar-11 05:33N 39°23' W 075°29'2 2.1
2017-Mar-11 04:33N 39°22' W 075°27'2 1.7
2017-Mar-11 03:32N 39°23' W 075°28'4 4.4
2017-Mar-11 02:33N 39°26' W 075°32'4 3.5
2017-Mar-11 01:33N 39°30' W 075°33'5 4.8
2017-Mar-11 00:33N 39°25' W 075°31'4 3.3
2017-Mar-10 23:14N 39°22' W 075°28'6 7.7
2017-Mar-10 22:29N 39°18' W 075°22'2 0.1
2017-Mar-10 04:17N 39°16' W 075°21'7 9.8
2017-Mar-10 03:33N 39°22' W 075°27'8 8.3
2017-Mar-10 02:33N 39°28' W 075°34'5 5.2
2017-Mar-10 01:33N 39°34' W 075°35'9 9.1
2017-Mar-10 00:33N 39°32' W 075°46'29 8.8
2017-Mar-09 21:16N 39°13' W 076°15'8 8.0
2017-Mar-09 20:13N 39°06' W 076°19'6 8.3
2017-Mar-09 19:30N 39°00' W 076°23'9 9.3
2017-Mar-09 18:32N 38°51' W 076°25'43 8.6
2017-Mar-09 13:33N 38°09' W 076°16'9 8.6
2017-Mar-09 12:33N 38°01' W 076°14'64 1.3
2017-Mar-07 11:18N 36°57' W 076°22'130 6.2
2017-Mar-06 14:23N 39°08' W 076°20'7 8.5
2017-Mar-06 13:33N 39°13' W 076°15'9 9.2
2017-Mar-06 12:33N 39°22' W 076°09'10 9.8
2017-Mar-06 11:33N 39°27' W 075°59'9 9.5
2017-Mar-06 10:33N 39°32' W 075°48'9 9.5
2017-Mar-06 09:33N 39°33' W 075°36'7 6.9
2017-Mar-06 08:33N 39°27' W 075°33'1111.2
2017-Mar-06 07:33N 39°18' W 075°23'1110.6
2017-Mar-06 06:33N 39°10' W 075°15'1110.4
2017-Mar-06 05:32N 39°00' W 075°09'67 7.3
2017-Mar-05 20:26N 39°40' W 073°60'8 9.2
2017-Mar-05 19:30N 39°48' W 073°57'38 9.5
2017-Mar-05 15:31N 40°26' W 073°54'7 7.0
2017-Mar-05 14:33N 40°31' W 074°00'8 8.5
2017-Mar-05 13:33N 40°39' W 074°03'8 8.5
2017-Mar-05 12:33N 40°46' W 073°57'  
Track history (hours):
 
Tides and Currents Weather Stations Pressure Air Temp Water Temp Dewpoint Dewpoint Depression Visibility Wind Speed Wind Dir Waves Ship Positions

C. Angelo

Owner: G T 110 INC, NEW HAVEN, CT. More information available from US FCC via Universal Licensing System and Coast Guard Vessel Documentation Center.

Last reported at 2017-Mar-13 19:33 UTC. Time now 2017-Mar-30 18:41 UTC.
Position N 41°12' W 072°37'.
Warning: this ship's position is 16 days out of date.

Length 30 m; draft 4 m.

Type: Tug. MMSI: 366988420.

Date/timePositionNaut miles runAvg speedWind from/ knotsBaromVisibWave heightAir tempDewpointWater temp
2017-Mar-13 19:33N 41°12' W 072°37'1010.2
2017-Mar-13 18:33N 41°13' W 072°23'50 9.9
2017-Mar-13 13:33N 41°34' W 071°24'1 1.0
2017-Mar-13 12:25N 41°35' W 071°23'2 2.4
2017-Mar-13 11:29N 41°33' W 071°24'3 3.5
2017-Mar-13 10:33N 41°36' W 071°23'5 4.2
2017-Mar-13 09:28N 41°32' W 071°24'39 5.7
2017-Mar-13 02:33N 41°13' W 072°10'7 6.6
2017-Mar-13 01:33N 41°11' W 072°18'6 6.3
2017-Mar-13 00:33N 41°09' W 072°26'7 6.8
2017-Mar-12 23:33N 41°07' W 072°35'7 6.7
2017-Mar-12 22:32N 41°05' W 072°44'48 6.9
2017-Mar-12 15:33N 40°51' W 073°45'6 6.4
2017-Mar-12 14:33N 40°48' W 073°52'8 7.9
2017-Mar-12 13:34N 40°42' W 073°60'7 7.4
2017-Mar-12 12:33N 40°35' W 074°02'8 8.0
2017-Mar-12 11:33N 40°29' W 073°55'34 8.3
2017-Mar-12 07:27N 39°55' W 073°57'8 8.3
2017-Mar-12 06:32N 39°47' W 073°58'8 8.3
2017-Mar-12 05:33N 39°40' W 074°02'9 8.5
2017-Mar-12 04:31N 39°32' W 074°07'62 5.6
2017-Mar-11 17:27N 39°21' W 075°26'8 8.7
2017-Mar-11 16:33N 39°27' W 075°32'1 0.6
2017-Mar-11 15:33N 39°27' W 075°33'7 6.5
2017-Mar-11 14:32N 39°22' W 075°28'3 3.4
2017-Mar-11 13:33N 39°25' W 075°30'5 4.8
2017-Mar-11 12:33N 39°29' W 075°34'1 1.2
2017-Mar-11 11:33N 39°28' W 075°33'4 3.6
2017-Mar-11 10:33N 39°25' W 075°30'3 2.9
2017-Mar-11 09:33N 39°23' W 075°28'3 2.9
2017-Mar-11 08:33N 39°25' W 075°30'1 1.1
2017-Mar-11 07:33N 39°26' W 075°31'1 1.3
2017-Mar-11 06:33N 39°25' W 075°30'2 1.7
2017-Mar-11 05:33N 39°23' W 075°29'2 2.1
2017-Mar-11 04:33N 39°22' W 075°27'2 1.7
2017-Mar-11 03:32N 39°23' W 075°28'4 4.4
2017-Mar-11 02:33N 39°26' W 075°32'4 3.5
2017-Mar-11 01:33N 39°30' W 075°33'5 4.8
2017-Mar-11 00:33N 39°25' W 075°31'4 3.3
2017-Mar-10 23:14N 39°22' W 075°28'6 7.7
2017-Mar-10 22:29N 39°18' W 075°22'2 0.1
2017-Mar-10 04:17N 39°16' W 075°21'7 9.8
2017-Mar-10 03:33N 39°22' W 075°27'8 8.3
2017-Mar-10 02:33N 39°28' W 075°34'5 5.2
2017-Mar-10 01:33N 39°34' W 075°35'9 9.1
2017-Mar-10 00:33N 39°32' W 075°46'29 8.8
2017-Mar-09 21:16N 39°13' W 076°15'8 8.0
2017-Mar-09 20:13N 39°06' W 076°19'6 8.3
2017-Mar-09 19:30N 39°00' W 076°23'9 9.3
2017-Mar-09 18:32N 38°51' W 076°25'43 8.6
2017-Mar-09 13:33N 38°09' W 076°16'9 8.6
2017-Mar-09 12:33N 38°01' W 076°14'64 1.3
2017-Mar-07 11:18N 36°57' W 076°22'130 6.2
2017-Mar-06 14:23N 39°08' W 076°20'7 8.5
2017-Mar-06 13:33N 39°13' W 076°15'9 9.2
2017-Mar-06 12:33N 39°22' W 076°09'10 9.8
2017-Mar-06 11:33N 39°27' W 075°59'9 9.5
2017-Mar-06 10:33N 39°32' W 075°48'9 9.5
2017-Mar-06 09:33N 39°33' W 075°36'7 6.9
2017-Mar-06 08:33N 39°27' W 075°33'1111.2
2017-Mar-06 07:33N 39°18' W 075°23'1110.6
2017-Mar-06 06:33N 39°10' W 075°15'1110.4
2017-Mar-06 05:32N 39°00' W 075°09'67 7.3
2017-Mar-05 20:26N 39°40' W 073°60'8 9.2
2017-Mar-05 19:30N 39°48' W 073°57'38 9.5
2017-Mar-05 15:31N 40°26' W 073°54'7 7.0
2017-Mar-05 14:33N 40°31' W 074°00'8 8.5
2017-Mar-05 13:33N 40°39' W 074°03'8 8.5
2017-Mar-05 12:33N 40°46' W 073°57'  

Dump ship's entire track history